sensor_id;sensor_type;location;lat;lon;timestamp;pressure;altitude;pressure_sealevel;temperature
78225;BMP280;67498;53.650;10.090;2024-01-30T00:00:05;102625.50;;;4.00
78225;BMP280;67498;53.650;10.090;2024-01-30T00:02:32;102622.00;;;3.96
78225;BMP280;67498;53.650;10.090;2024-01-30T00:04:57;102639.53;;;4.07
78225;BMP280;67498;53.650;10.090;2024-01-30T00:07:22;102636.34;;;4.10
78225;BMP280;67498;53.650;10.090;2024-01-30T00:09:47;102639.69;;;4.11
78225;BMP280;67498;53.650;10.090;2024-01-30T00:12:13;102632.53;;;4.08
78225;BMP280;67498;53.650;10.090;2024-01-30T00:14:38;102636.94;;;4.07
78225;BMP280;67498;53.650;10.090;2024-01-30T00:17:06;102630.44;;;4.10
78225;BMP280;67498;53.650;10.090;2024-01-30T00:19:31;102630.91;;;4.12
78225;BMP280;67498;53.650;10.090;2024-01-30T00:21:57;102626.19;;;4.14
78225;BMP280;67498;53.650;10.090;2024-01-30T00:24:22;102629.84;;;4.22
78225;BMP280;67498;53.650;10.090;2024-01-30T00:26:47;102618.75;;;4.21
78225;BMP280;67498;53.650;10.090;2024-01-30T00:29:12;102618.91;;;4.25
78225;BMP280;67498;53.650;10.090;2024-01-30T00:31:44;102612.38;;;4.27
78225;BMP280;67498;53.650;10.090;2024-01-30T00:34:09;102609.66;;;4.24
78225;BMP280;67498;53.650;10.090;2024-01-30T00:36:34;102611.28;;;4.20
78225;BMP280;67498;53.650;10.090;2024-01-30T00:39:00;102609.63;;;4.15
78225;BMP280;67498;53.650;10.090;2024-01-30T00:41:25;102610.22;;;4.12
78225;BMP280;67498;53.650;10.090;2024-01-30T00:43:51;102616.91;;;4.13
78225;BMP280;67498;53.650;10.090;2024-01-30T00:46:17;102605.34;;;4.10
78225;BMP280;67498;53.650;10.090;2024-01-30T00:48:42;102611.72;;;4.13
78225;BMP280;67498;53.650;10.090;2024-01-30T00:51:08;102605.81;;;4.12
78225;BMP280;67498;53.650;10.090;2024-01-30T00:53:33;102600.00;;;4.07
78225;BMP280;67498;53.650;10.090;2024-01-30T00:55:58;102599.81;;;4.03
78225;BMP280;67498;53.650;10.090;2024-01-30T00:58:23;102607.56;;;4.03
78225;BMP280;67498;53.650;10.090;2024-01-30T01:00:49;102611.97;;;4.03
78225;BMP280;67498;53.650;10.090;2024-01-30T01:03:14;102610.31;;;3.98
78225;BMP280;67498;53.650;10.090;2024-01-30T01:05:39;102603.44;;;3.94
78225;BMP280;67498;53.650;10.090;2024-01-30T01:08:05;102606.16;;;3.88
78225;BMP280;67498;53.650;10.090;2024-01-30T01:10:30;102613.13;;;3.88
78225;BMP280;67498;53.650;10.090;2024-01-30T01:12:55;102612.47;;;3.82
78225;BMP280;67498;53.650;10.090;2024-01-30T01:15:20;102618.72;;;3.81
78225;BMP280;67498;53.650;10.090;2024-01-30T01:17:46;102615.50;;;3.76
78225;BMP280;67498;53.650;10.090;2024-01-30T01:20:11;102604.22;;;3.72
78225;BMP280;67498;53.650;10.090;2024-01-30T01:22:37;102619.16;;;3.75
78225;BMP280;67498;53.650;10.090;2024-01-30T01:25:04;102615.03;;;3.74
78225;BMP280;67498;53.650;10.090;2024-01-30T01:27:32;102619.16;;;3.75
78225;BMP280;67498;53.650;10.090;2024-01-30T01:29:58;102609.56;;;3.75
78225;BMP280;67498;53.650;10.090;2024-01-30T01:32:23;102615.50;;;3.76
78225;BMP280;67498;53.650;10.090;2024-01-30T01:34:48;102609.88;;;3.74
78225;BMP280;67498;53.650;10.090;2024-01-30T01:37:13;102612.47;;;3.74
78225;BMP280;67498;53.650;10.090;2024-01-30T01:39:39;102609.56;;;3.75
78225;BMP280;67498;53.650;10.090;2024-01-30T01:42:04;102602.13;;;3.74
78225;BMP280;67498;53.650;10.090;2024-01-30T01:44:29;102606.22;;;3.75
78225;BMP280;67498;53.650;10.090;2024-01-30T01:46:55;102604.84;;;3.77
78225;BMP280;67498;53.650;10.090;2024-01-30T01:49:24;102593.03;;;3.76
78225;BMP280;67498;53.650;10.090;2024-01-30T01:51:50;102605.03;;;3.81
78225;BMP280;67498;53.650;10.090;2024-01-30T01:54:18;102604.91;;;3.86
78225;BMP280;67498;53.650;10.090;2024-01-30T01:56:43;102592.91;;;3.90
78225;BMP280;67498;53.650;10.090;2024-01-30T01:59:09;102597.50;;;3.93
78225;BMP280;67498;53.650;10.090;2024-01-30T02:01:36;102592.50;;;3.97
78225;BMP280;67498;53.650;10.090;2024-01-30T02:04:02;102589.16;;;3.96
78225;BMP280;67498;53.650;10.090;2024-01-30T02:06:27;102593.72;;;3.99
78225;BMP280;67498;53.650;10.090;2024-01-30T02:08:53;102585.50;;;3.97
78225;BMP280;67498;53.650;10.090;2024-01-30T02:11:19;102581.88;;;3.98
78225;BMP280;67498;53.650;10.090;2024-01-30T02:13:45;102572.75;;;4.01
78225;BMP280;67498;53.650;10.090;2024-01-30T02:16:10;102569.09;;;4.02
78225;BMP280;67498;53.650;10.090;2024-01-30T02:18:35;102572.16;;;4.04
78225;BMP280;67498;53.650;10.090;2024-01-30T02:21:07;102564.88;;;4.06
78225;BMP280;67498;53.650;10.090;2024-01-30T02:23:33;102554.53;;;4.06
78225;BMP280;67498;53.650;10.090;2024-01-30T02:25:58;102555.75;;;4.08
78225;BMP280;67498;53.650;10.090;2024-01-30T02:28:24;102550.59;;;4.08
78225;BMP280;67498;53.650;10.090;2024-01-30T02:30:49;102547.72;;;4.10
78225;BMP280;67498;53.650;10.090;2024-01-30T02:33:14;102553.66;;;4.10
78225;BMP280;67498;53.650;10.090;2024-01-30T02:35:40;102544.66;;;4.08
78225;BMP280;67498;53.650;10.090;2024-01-30T02:38:05;102547.53;;;4.06
78225;BMP280;67498;53.650;10.090;2024-01-30T02:40:31;102545.72;;;4.07
78225;BMP280;67498;53.650;10.090;2024-01-30T02:42:58;102535.69;;;4.05
78225;BMP280;67498;53.650;10.090;2024-01-30T02:45:24;102537.19;;;4.06
78225;BMP280;67498;53.650;10.090;2024-01-30T02:47:49;102542.38;;;4.06
78225;BMP280;67498;53.650;10.090;2024-01-30T02:50:14;102541.59;;;4.06
78225;BMP280;67498;53.650;10.090;2024-01-30T02:52:41;102540.84;;;4.05
78225;BMP280;67498;53.650;10.090;2024-01-30T02:55:08;102541.44;;;4.02
78225;BMP280;67498;53.650;10.090;2024-01-30T02:57:34;102542.66;;;3.96
78225;BMP280;67498;53.650;10.090;2024-01-30T02:59:59;102542.66;;;3.96
78225;BMP280;67498;53.650;10.090;2024-01-30T03:02:25;102539.59;;;3.94
78225;BMP280;67498;53.650;10.090;2024-01-30T03:04:50;102544.59;;;3.90
78225;BMP280;67498;53.650;10.090;2024-01-30T03:07:15;102535.44;;;3.84
78225;BMP280;67498;53.650;10.090;2024-01-30T03:09:41;102531.34;;;3.83
78225;BMP280;67498;53.650;10.090;2024-01-30T03:12:08;102527.81;;;3.79
78225;BMP280;67498;53.650;10.090;2024-01-30T03:14:33;102536.63;;;3.78
78225;BMP280;67498;53.650;10.090;2024-01-30T03:16:58;102533.63;;;3.76
78225;BMP280;67498;53.650;10.090;2024-01-30T03:19:24;102529.00;;;3.73
78225;BMP280;67498;53.650;10.090;2024-01-30T03:21:49;102524.44;;;3.70
78225;BMP280;67498;53.650;10.090;2024-01-30T03:24:15;102527.91;;;3.65
78225;BMP280;67498;53.650;10.090;2024-01-30T03:26:40;102531.09;;;3.62
78225;BMP280;67498;53.650;10.090;2024-01-30T03:29:08;102520.00;;;3.62
78225;BMP280;67498;53.650;10.090;2024-01-30T03:31:34;102524.69;;;3.60
78225;BMP280;67498;53.650;10.090;2024-01-30T03:33:59;102518.78;;;3.59
78225;BMP280;67498;53.650;10.090;2024-01-30T03:36:24;102525.44;;;3.60
78225;BMP280;67498;53.650;10.090;2024-01-30T03:38:50;102516.75;;;3.56
78225;BMP280;67498;53.650;10.090;2024-01-30T03:41:15;102519.94;;;3.53
78225;BMP280;67498;53.650;10.090;2024-01-30T03:43:40;102520.22;;;3.52
78225;BMP280;67498;53.650;10.090;2024-01-30T03:46:06;102513.84;;;3.49
78225;BMP280;67498;53.650;10.090;2024-01-30T03:48:31;102515.06;;;3.52
78225;BMP280;67498;53.650;10.090;2024-01-30T03:50:57;102504.03;;;3.60
78225;BMP280;67498;53.650;10.090;2024-01-30T03:53:22;102499.50;;;3.65
78225;BMP280;67498;53.650;10.090;2024-01-30T03:55:47;102493.75;;;3.68
78225;BMP280;67498;53.650;10.090;2024-01-30T03:58:12;102503.97;;;3.74
78225;BMP280;67498;53.650;10.090;2024-01-30T04:00:38;102496.66;;;3.76
78225;BMP280;67498;53.650;10.090;2024-01-30T04:03:03;102497.88;;;3.78
78225;BMP280;67498;53.650;10.090;2024-01-30T04:05:29;102484.84;;;3.83
78225;BMP280;67498;53.650;10.090;2024-01-30T04:07:54;102485.94;;;3.91
78225;BMP280;67498;53.650;10.090;2024-01-30T04:10:19;102499.19;;;3.98
78225;BMP280;67498;53.650;10.090;2024-01-30T04:12:45;102496.72;;;4.02
78225;BMP280;67498;53.650;10.090;2024-01-30T04:15:10;102492.47;;;3.97
78225;BMP280;67498;53.650;10.090;2024-01-30T04:17:35;102498.84;;;3.91
78225;BMP280;67498;53.650;10.090;2024-01-30T04:20:00;102496.69;;;3.84
78225;BMP280;67498;53.650;10.090;2024-01-30T04:22:26;102503.09;;;3.87
78225;BMP280;67498;53.650;10.090;2024-01-30T04:24:51;102500.34;;;3.83
78225;BMP280;67498;53.650;10.090;2024-01-30T04:27:16;102505.78;;;3.82
78225;BMP280;67498;53.650;10.090;2024-01-30T04:29:42;102513.38;;;3.78
78225;BMP280;67498;53.650;10.090;2024-01-30T04:32:07;102506.69;;;3.77
78225;BMP280;67498;53.650;10.090;2024-01-30T04:34:32;102500.75;;;3.77
78225;BMP280;67498;53.650;10.090;2024-01-30T04:36:58;102506.56;;;3.74
78225;BMP280;67498;53.650;10.090;2024-01-30T04:39:23;102510.16;;;3.64
78225;BMP280;67498;53.650;10.090;2024-01-30T04:41:48;102498.41;;;3.58
78225;BMP280;67498;53.650;10.090;2024-01-30T04:44:14;102509.81;;;3.57
78225;BMP280;67498;53.650;10.090;2024-01-30T04:46:39;102512.19;;;3.53
78225;BMP280;67498;53.650;10.090;2024-01-30T04:49:05;102508.09;;;3.52
78225;BMP280;67498;53.650;10.090;2024-01-30T04:51:32;102505.50;;;3.52
78225;BMP280;67498;53.650;10.090;2024-01-30T04:53:58;102506.59;;;3.51
78225;BMP280;67498;53.650;10.090;2024-01-30T04:56:23;102505.19;;;3.45
78225;BMP280;67498;53.650;10.090;2024-01-30T04:58:48;102501.81;;;3.44
78225;BMP280;67498;53.650;10.090;2024-01-30T05:01:17;102504.13;;;3.46
78225;BMP280;67498;53.650;10.090;2024-01-30T05:03:42;102499.16;;;3.50
78225;BMP280;67498;53.650;10.090;2024-01-30T05:06:08;102502.34;;;3.55
78225;BMP280;67498;53.650;10.090;2024-01-30T05:08:33;102506.91;;;3.58
78225;BMP280;67498;53.650;10.090;2024-01-30T05:11:01;102505.88;;;3.59
78225;BMP280;67498;53.650;10.090;2024-01-30T05:13:29;102506.31;;;3.61
78225;BMP280;67498;53.650;10.090;2024-01-30T05:15:54;102504.03;;;3.60
78225;BMP280;67498;53.650;10.090;2024-01-30T05:18:19;102489.13;;;3.57
78225;BMP280;67498;53.650;10.090;2024-01-30T05:20:45;102493.34;;;3.53
78225;BMP280;67498;53.650;10.090;2024-01-30T05:23:10;102497.75;;;3.52
78225;BMP280;67498;53.650;10.090;2024-01-30T05:25:35;102495.34;;;3.47
78225;BMP280;67498;53.650;10.090;2024-01-30T05:28:00;102507.47;;;3.46
78225;BMP280;67498;53.650;10.090;2024-01-30T05:30:26;102497.13;;;3.46
78225;BMP280;67498;53.650;10.090;2024-01-30T05:32:51;102495.34;;;3.47
78225;BMP280;67498;53.650;10.090;2024-01-30T05:35:17;102504.72;;;3.52
78225;BMP280;67498;53.650;10.090;2024-01-30T05:37:43;102499.75;;;3.55
78225;BMP280;67498;53.650;10.090;2024-01-30T05:40:08;102495.53;;;3.59
78225;BMP280;67498;53.650;10.090;2024-01-30T05:42:34;102492.63;;;3.61
78225;BMP280;67498;53.650;10.090;2024-01-30T05:44:59;102490.53;;;3.63
78225;BMP280;67498;53.650;10.090;2024-01-30T05:47:24;102487.94;;;3.63
78225;BMP280;67498;53.650;10.090;2024-01-30T05:49:49;102481.91;;;3.67
78225;BMP280;67498;53.650;10.090;2024-01-30T05:52:15;102481.00;;;3.72
78225;BMP280;67498;53.650;10.090;2024-01-30T05:54:41;102473.72;;;3.74
78225;BMP280;67498;53.650;10.090;2024-01-30T05:57:06;102468.69;;;3.78
78225;BMP280;67498;53.650;10.090;2024-01-30T05:59:32;102470.69;;;3.81
78225;BMP280;67498;53.650;10.090;2024-01-30T06:01:57;102467.50;;;3.84
78225;BMP280;67498;53.650;10.090;2024-01-30T06:04:23;102468.91;;;3.90
78225;BMP280;67498;53.650;10.090;2024-01-30T06:06:48;102473.16;;;3.95
78225;BMP280;67498;53.650;10.090;2024-01-30T06:09:13;102465.88;;;3.97
78225;BMP280;67498;53.650;10.090;2024-01-30T06:11:39;102460.13;;;4.00
78225;BMP280;67498;53.650;10.090;2024-01-30T06:14:04;102464.97;;;4.01
78225;BMP280;67498;53.650;10.090;2024-01-30T06:16:29;102463.13;;;4.02
78225;BMP280;67498;53.650;10.090;2024-01-30T06:18:55;102465.44;;;4.03
78225;BMP280;67498;53.650;10.090;2024-01-30T06:21:21;102451.44;;;4.04
78225;BMP280;67498;53.650;10.090;2024-01-30T06:23:46;102457.06;;;4.06
78225;BMP280;67498;53.650;10.090;2024-01-30T06:26:11;102444.63;;;4.08
78225;BMP280;67498;53.650;10.090;2024-01-30T06:28:37;102446.16;;;4.09
78225;BMP280;67498;53.650;10.090;2024-01-30T06:31:02;102446.91;;;4.10
78225;BMP280;67498;53.650;10.090;2024-01-30T06:33:27;102447.22;;;4.08
78225;BMP280;67498;53.650;10.090;2024-01-30T06:35:53;102447.06;;;4.13
78225;BMP280;67498;53.650;10.090;2024-01-30T06:38:18;102448.44;;;4.20
78225;BMP280;67498;53.650;10.090;2024-01-30T06:40:43;102447.53;;;4.24
78225;BMP280;67498;53.650;10.090;2024-01-30T06:43:08;102449.22;;;4.29
78225;BMP280;67498;53.650;10.090;2024-01-30T06:45:34;102442.69;;;4.31
78225;BMP280;67498;53.650;10.090;2024-01-30T06:48:00;102439.19;;;4.36
78225;BMP280;67498;53.650;10.090;2024-01-30T06:50:26;102447.09;;;4.40
78225;BMP280;67498;53.650;10.090;2024-01-30T06:52:51;102449.06;;;4.43
78225;BMP280;67498;53.650;10.090;2024-01-30T06:55:16;102441.00;;;4.44
78225;BMP280;67498;53.650;10.090;2024-01-30T06:57:41;102442.69;;;4.49
78225;BMP280;67498;53.650;10.090;2024-01-30T07:00:07;102440.56;;;4.51
78225;BMP280;67498;53.650;10.090;2024-01-30T07:02:32;102452.75;;;4.50
78225;BMP280;67498;53.650;10.090;2024-01-30T07:04:58;102455.31;;;4.50
78225;BMP280;67498;53.650;10.090;2024-01-30T07:07:23;102455.47;;;4.54
78225;BMP280;67498;53.650;10.090;2024-01-30T07:09:49;102452.88;;;4.54
78225;BMP280;67498;53.650;10.090;2024-01-30T07:12:17;102461.41;;;4.54
78225;BMP280;67498;53.650;10.090;2024-01-30T07:14:43;102446.50;;;4.51
78225;BMP280;67498;53.650;10.090;2024-01-30T07:17:08;102435.22;;;4.47
78225;BMP280;67498;53.650;10.090;2024-01-30T07:19:33;102433.13;;;4.41
78225;BMP280;67498;53.650;10.090;2024-01-30T07:21:59;102451.06;;;4.37
78225;BMP280;67498;53.650;10.090;2024-01-30T07:24:24;102441.94;;;4.31
78225;BMP280;67498;53.650;10.090;2024-01-30T07:26:50;102454.53;;;4.32
78225;BMP280;67498;53.650;10.090;2024-01-30T07:29:15;102441.94;;;4.31
78225;BMP280;67498;53.650;10.090;2024-01-30T07:31:40;102445.41;;;4.35
78225;BMP280;67498;53.650;10.090;2024-01-30T07:34:05;102444.06;;;4.38
78225;BMP280;67498;53.650;10.090;2024-01-30T07:36:31;102436.63;;;4.36
78225;BMP280;67498;53.650;10.090;2024-01-30T07:38:56;102444.06;;;4.38
78225;BMP280;67498;53.650;10.090;2024-01-30T07:41:21;102430.84;;;4.39
78225;BMP280;67498;53.650;10.090;2024-01-30T07:43:46;102445.72;;;4.42
78225;BMP280;67498;53.650;10.090;2024-01-30T07:46:12;102443.88;;;4.43
78225;BMP280;67498;53.650;10.090;2024-01-30T07:48:37;102441.16;;;4.48
78225;BMP280;67498;53.650;10.090;2024-01-30T07:51:02;102445.88;;;4.54
78225;BMP280;67498;53.650;10.090;2024-01-30T07:53:29;102444.81;;;4.55
78225;BMP280;67498;53.650;10.090;2024-01-30T07:55:54;102451.22;;;4.58
78225;BMP280;67498;53.650;10.090;2024-01-30T07:58:19;102454.69;;;4.62
78225;BMP280;67498;53.650;10.090;2024-01-30T08:00:45;102448.31;;;4.68
78225;BMP280;67498;53.650;10.090;2024-01-30T08:03:10;102444.34;;;4.71
78225;BMP280;67498;53.650;10.090;2024-01-30T08:05:35;102446.47;;;4.77
78225;BMP280;67498;53.650;10.090;2024-01-30T08:08:01;102447.84;;;4.84
78225;BMP280;67498;53.650;10.090;2024-01-30T08:10:26;102446.16;;;4.88
78225;BMP280;67498;53.650;10.090;2024-01-30T08:12:51;102441.13;;;4.91
78225;BMP280;67498;53.650;10.090;2024-01-30T08:15:17;102433.94;;;4.97
78225;BMP280;67498;53.650;10.090;2024-01-30T08:17:42;102439.75;;;5.02
78225;BMP280;67498;53.650;10.090;2024-01-30T08:20:07;102432.84;;;5.07
78225;BMP280;67498;53.650;10.090;2024-01-30T08:22:38;102435.72;;;5.14
78225;BMP280;67498;53.650;10.090;2024-01-30T08:25:04;102439.50;;;5.16
78225;BMP280;67498;53.650;10.090;2024-01-30T08:27:30;102441.19;;;5.21
78225;BMP280;67498;53.650;10.090;2024-01-30T08:29:55;102437.38;;;5.27
78225;BMP280;67498;53.650;10.090;2024-01-30T08:32:20;102438.25;;;5.31
78225;BMP280;67498;53.650;10.090;2024-01-30T08:34:45;102433.69;;;5.37
78225;BMP280;67498;53.650;10.090;2024-01-30T08:37:11;102434.72;;;5.44
78225;BMP280;67498;53.650;10.090;2024-01-30T08:39:37;102429.78;;;5.52
78225;BMP280;67498;53.650;10.090;2024-01-30T08:42:02;102422.00;;;5.60
78225;BMP280;67498;53.650;10.090;2024-01-30T08:44:28;102427.44;;;5.67
78225;BMP280;67498;53.650;10.090;2024-01-30T08:46:53;102435.16;;;5.76
78225;BMP280;67498;53.650;10.090;2024-01-30T08:49:19;102419.09;;;5.83
78225;BMP280;67498;53.650;10.090;2024-01-30T08:51:45;102417.97;;;5.92
78225;BMP280;67498;53.650;10.090;2024-01-30T08:54:10;102408.94;;;5.99
78225;BMP280;67498;53.650;10.090;2024-01-30T08:56:36;102416.22;;;6.05
78225;BMP280;67498;53.650;10.090;2024-01-30T08:59:01;102414.75;;;6.17
78225;BMP280;67498;53.650;10.090;2024-01-30T09:01:26;102408.63;;;6.21
78225;BMP280;67498;53.650;10.090;2024-01-30T09:03:52;102401.81;;;6.29
78225;BMP280;67498;53.650;10.090;2024-01-30T09:06:18;102390.94;;;6.35
78225;BMP280;67498;53.650;10.090;2024-01-30T09:08:43;102377.13;;;6.44
78225;BMP280;67498;53.650;10.090;2024-01-30T09:11:09;102378.22;;;6.55
78225;BMP280;67498;53.650;10.090;2024-01-30T09:13:35;102375.53;;;6.64
78225;BMP280;67498;53.650;10.090;2024-01-30T09:16:00;102385.06;;;6.72
78225;BMP280;67498;53.650;10.090;2024-01-30T09:18:26;102385.72;;;6.81
78225;BMP280;67498;53.650;10.090;2024-01-30T09:20:51;102396.25;;;6.85
78225;BMP280;67498;53.650;10.090;2024-01-30T09:23:16;102404.25;;;6.92
78225;BMP280;67498;53.650;10.090;2024-01-30T09:25:43;102407.09;;;6.99
78225;BMP280;67498;53.650;10.090;2024-01-30T09:28:09;102405.00;;;7.04
78225;BMP280;67498;53.650;10.090;2024-01-30T09:30:34;102411.06;;;7.09
78225;BMP280;67498;53.650;10.090;2024-01-30T09:32:59;102414.63;;;7.16
78225;BMP280;67498;53.650;10.090;2024-01-30T09:35:25;102417.47;;;7.23
78225;BMP280;67498;53.650;10.090;2024-01-30T09:37:50;102430.66;;;7.31
78225;BMP280;67498;53.650;10.090;2024-01-30T09:40:17;102421.91;;;7.35
78225;BMP280;67498;53.650;10.090;2024-01-30T09:42:46;102426.53;;;7.42
78225;BMP280;67498;53.650;10.090;2024-01-30T09:45:13;102436.06;;;7.50
78225;BMP280;67498;53.650;10.090;2024-01-30T09:47:43;102424.25;;;7.52
78225;BMP280;67498;53.650;10.090;2024-01-30T09:50:09;102429.66;;;7.60
78225;BMP280;67498;53.650;10.090;2024-01-30T09:52:35;102422.38;;;7.65
78225;BMP280;67498;53.650;10.090;2024-01-30T09:55:00;102414.69;;;7.69
78225;BMP280;67498;53.650;10.090;2024-01-30T09:57:26;102412.59;;;7.74
78225;BMP280;67498;53.650;10.090;2024-01-30T09:59:51;102404.81;;;7.74
78225;BMP280;67498;53.650;10.090;2024-01-30T10:02:19;102407.16;;;7.80
78225;BMP280;67498;53.650;10.090;2024-01-30T10:04:44;102407.34;;;7.87
78225;BMP280;67498;53.650;10.090;2024-01-30T10:07:10;102402.78;;;7.96
78225;BMP280;67498;53.650;10.090;2024-01-30T10:09:36;102399.63;;;8.03
78225;BMP280;67498;53.650;10.090;2024-01-30T10:12:02;102400.56;;;8.10
78225;BMP280;67498;53.650;10.090;2024-01-30T10:14:28;102388.84;;;8.16
78225;BMP280;67498;53.650;10.090;2024-01-30T10:16:55;102388.59;;;8.21
78225;BMP280;67498;53.650;10.090;2024-01-30T10:19:20;102390.25;;;8.30
78225;BMP280;67498;53.650;10.090;2024-01-30T10:21:46;102391.72;;;8.43
78225;BMP280;67498;53.650;10.090;2024-01-30T10:24:11;102399.78;;;8.54
78225;BMP280;67498;53.650;10.090;2024-01-30T10:26:39;102401.75;;;8.57
78225;BMP280;67498;53.650;10.090;2024-01-30T10:29:04;102399.88;;;8.57
78225;BMP280;67498;53.650;10.090;2024-01-30T10:31:29;102396.97;;;8.59
78225;BMP280;67498;53.650;10.090;2024-01-30T10:33:55;102400.63;;;8.58
78225;BMP280;67498;53.650;10.090;2024-01-30T10:36:26;102378.19;;;8.53
78225;BMP280;67498;53.650;10.090;2024-01-30T10:38:55;102384.81;;;8.51
78225;BMP280;67498;53.650;10.090;2024-01-30T10:41:27;102373.66;;;8.50
78225;BMP280;67498;53.650;10.090;2024-01-30T10:44:19;102368.53;;;8.54
78225;BMP280;67498;53.650;10.090;2024-01-30T10:46:49;102372.75;;;8.58
78225;BMP280;67498;53.650;10.090;2024-01-30T10:49:16;102372.50;;;8.63
78225;BMP280;67498;53.650;10.090;2024-01-30T10:51:41;102373.25;;;8.64
78225;BMP280;67498;53.650;10.090;2024-01-30T10:54:08;102378.63;;;8.71
78225;BMP280;67498;53.650;10.090;2024-01-30T10:56:34;102375.41;;;8.78
78225;BMP280;67498;53.650;10.090;2024-01-30T10:59:00;102374.50;;;8.86
78225;BMP280;67498;53.650;10.090;2024-01-30T11:01:27;102376.81;;;8.91
78225;BMP280;67498;53.650;10.090;2024-01-30T11:03:54;102379.09;;;8.93
78225;BMP280;67498;53.650;10.090;2024-01-30T11:06:24;102378.31;;;8.92
78225;BMP280;67498;53.650;10.090;2024-01-30T11:09:09;102375.41;;;8.94
78225;BMP280;67498;53.650;10.090;2024-01-30T11:11:52;102363.56;;;8.96
78225;BMP280;67498;53.650;10.090;2024-01-30T11:14:23;102370.63;;;8.96
78225;BMP280;67498;53.650;10.090;2024-01-30T11:16:50;102371.78;;;8.98
78225;BMP280;67498;53.650;10.090;2024-01-30T11:19:22;102369.94;;;8.99
78225;BMP280;67498;53.650;10.090;2024-01-30T11:21:50;102374.47;;;9.02
78225;BMP280;67498;53.650;10.090;2024-01-30T11:24:15;102383.47;;;9.04
78225;BMP280;67498;53.650;10.090;2024-01-30T11:26:42;102364.13;;;9.05
78225;BMP280;67498;53.650;10.090;2024-01-30T11:29:07;102360.41;;;9.06
78225;BMP280;67498;53.650;10.090;2024-01-30T11:31:34;102372.38;;;9.07
78225;BMP280;67498;53.650;10.090;2024-01-30T11:33:59;102369.00;;;9.07
78225;BMP280;67498;53.650;10.090;2024-01-30T11:36:25;102360.09;;;9.08
78225;BMP280;67498;53.650;10.090;2024-01-30T11:38:52;102367.28;;;9.14
78225;BMP280;67498;53.650;10.090;2024-01-30T11:41:17;102362.06;;;9.14
78225;BMP280;67498;53.650;10.090;2024-01-30T11:43:43;102356.88;;;9.14
78225;BMP280;67498;53.650;10.090;2024-01-30T11:46:08;102366.97;;;9.16
78225;BMP280;67498;53.650;10.090;2024-01-30T11:48:35;102359.53;;;9.18
78225;BMP280;67498;53.650;10.090;2024-01-30T11:51:00;102346.91;;;9.20
78225;BMP280;67498;53.650;10.090;2024-01-30T11:53:26;102346.59;;;9.22
78225;BMP280;67498;53.650;10.090;2024-01-30T11:55:52;102338.84;;;9.25
78225;BMP280;67498;53.650;10.090;2024-01-30T11:58:18;102353.41;;;9.26
78225;BMP280;67498;53.650;10.090;2024-01-30T12:00:52;102349.25;;;9.25
78225;BMP280;67498;53.650;10.090;2024-01-30T12:03:18;102357.50;;;9.27
78225;BMP280;67498;53.650;10.090;2024-01-30T12:05:43;102354.13;;;9.27
78225;BMP280;67498;53.650;10.090;2024-01-30T12:08:15;102347.47;;;9.29
78225;BMP280;67498;53.650;10.090;2024-01-30T12:10:40;102346.03;;;9.32
78225;BMP280;67498;53.650;10.090;2024-01-30T12:13:06;102338.22;;;9.32
78225;BMP280;67498;53.650;10.090;2024-01-30T12:15:31;102342.34;;;9.33
78225;BMP280;67498;53.650;10.090;2024-01-30T12:18:06;102334.19;;;9.34
78225;BMP280;67498;53.650;10.090;2024-01-30T12:20:32;102334.19;;;9.34
78225;BMP280;67498;53.650;10.090;2024-01-30T12:22:58;102336.78;;;9.34
78225;BMP280;67498;53.650;10.090;2024-01-30T12:25:23;102345.34;;;9.35
78225;BMP280;67498;53.650;10.090;2024-01-30T12:27:49;102340.56;;;9.37
78225;BMP280;67498;53.650;10.090;2024-01-30T12:30:16;102334.25;;;9.38
78225;BMP280;67498;53.650;10.090;2024-01-30T12:32:44;102323.41;;;9.36
78225;BMP280;67498;53.650;10.090;2024-01-30T12:35:10;102327.09;;;9.35
78225;BMP280;67498;53.650;10.090;2024-01-30T12:37:36;102328.63;;;9.36
78225;BMP280;67498;53.650;10.090;2024-01-30T12:40:02;102313.75;;;9.36
78225;BMP280;67498;53.650;10.090;2024-01-30T12:42:27;102323.81;;;9.38
78225;BMP280;67498;53.650;10.090;2024-01-30T12:44:52;102328.66;;;9.40
78225;BMP280;67498;53.650;10.090;2024-01-30T12:47:18;102329.84;;;9.42
78225;BMP280;67498;53.650;10.090;2024-01-30T12:49:43;102329.50;;;9.44
78225;BMP280;67498;53.650;10.090;2024-01-30T12:52:13;102325.09;;;9.48
78225;BMP280;67498;53.650;10.090;2024-01-30T12:54:38;102334.44;;;9.49
78225;BMP280;67498;53.650;10.090;2024-01-30T12:57:05;102330.06;;;9.53
78225;BMP280;67498;53.650;10.090;2024-01-30T12:59:30;102339.78;;;9.56
78225;BMP280;67498;53.650;10.090;2024-01-30T13:01:56;102336.84;;;9.57
78225;BMP280;67498;53.650;10.090;2024-01-30T13:04:22;102331.28;;;9.59
78225;BMP280;67498;53.650;10.090;2024-01-30T13:06:47;102332.47;;;9.62
78225;BMP280;67498;53.650;10.090;2024-01-30T13:09:13;102326.56;;;9.65
78225;BMP280;67498;53.650;10.090;2024-01-30T13:11:38;102327.38;;;9.69
78225;BMP280;67498;53.650;10.090;2024-01-30T13:14:03;102323.66;;;9.70
78225;BMP280;67498;53.650;10.090;2024-01-30T13:16:28;102326.31;;;9.73
78225;BMP280;67498;53.650;10.090;2024-01-30T13:18:54;102334.94;;;9.77
78225;BMP280;67498;53.650;10.090;2024-01-30T13:21:20;102329.41;;;9.79
78225;BMP280;67498;53.650;10.090;2024-01-30T13:23:46;102333.50;;;9.80
78225;BMP280;67498;53.650;10.090;2024-01-30T13:26:11;102325.69;;;9.80
78225;BMP280;67498;53.650;10.090;2024-01-30T13:28:37;102325.38;;;9.85
78225;BMP280;67498;53.650;10.090;2024-01-30T13:31:02;102324.72;;;9.88
78225;BMP280;67498;53.650;10.090;2024-01-30T13:33:28;102331.50;;;9.93
78225;BMP280;67498;53.650;10.090;2024-01-30T13:35:53;102325.59;;;9.96
78225;BMP280;67498;53.650;10.090;2024-01-30T13:38:18;102318.50;;;9.96
78225;BMP280;67498;53.650;10.090;2024-01-30T13:40:43;102320.78;;;9.98
78225;BMP280;67498;53.650;10.090;2024-01-30T13:43:09;102322.63;;;9.97
78225;BMP280;67498;53.650;10.090;2024-01-30T13:45:34;102323.38;;;9.98
78225;BMP280;67498;53.650;10.090;2024-01-30T13:48:00;102326.00;;;9.98